Airfield :
LOGIN :

Register | Disclaimer

   EN    FR    IT 

 










Legend :    VFR   Marginal VFR   IFR   Intensive IFR   Very Intensive IFR
Visi :
Ceiling :
>= 8 km
>= 3000ft
5 to 8 km
1000 to 3000 ft
1500m to 5 km
500 to 1000 ft
800 to 1500m
200 to 500 ft
< 800m
< 200 ft
Symbols :   Thunderstorms  Fog  Heavy snow  Heavy precipitations  Wind > 20 kt
SIGMETs :     Misc.  Thunderstorms  Icing  Turbulence  Mountain Waves  Volcanic Ashes






- Airport Elevation : 353 ft
- IATA code : CND


LRCK - Constanta

CURRENT METAR :
  • 051000Z 04023KT CAVOK 14/01 Q1025 TEMPO 05025G35KT

EXPIRED METARs :
  • 050930Z 05025KT CAVOK 14/01 Q1025 TEMPO 04023G33KT
  • 050900Z 04023KT CAVOK 13/02 Q1025 TEMPO 04023G33KT
  • 050830Z 04022KT CAVOK 13/02 Q1025 TEMPO 05022G32KT
  • 050800Z 05021KT CAVOK 13/03 Q1025 TEMPO 05022G32KT
  • 050730Z 05018KT CAVOK 11/03 Q1025 NOSIG

TAF TAF LRCK
Valid from the 05 at 06:00 until the 06 at 06:00 UTC


050500Z 0506/0606 04010KT CAVOK
BECMG 0506/0508 05015G25KT
TEMPO 0509/0518 05025G40KT



MET'MAP, your aeronautical weather chart ! - Copyright ORBIFLY December 2007 - Disclaimer

ORBIFLY MET'MAP TEAM :

Programming & Development : Alexandra Zaïnal
Concept & original design : Baudouin d'Aumeries
Assistance for programming : Marc-Olivier Méhu
Technical & hardware support : Manuel Goepfert

Contact : metmap@orbifly.com




SOURCES & CREDITS :

   NOAA